Aviation Digital Data Service (ADDS)

Output produced by METARs form (1438 UTC 10 December 2016)
found at http://aviationweather.gov/adds/metars/
 
KPBG 101125Z 1012/1112 31006KT P6SM SCT050 
     FM101800 34005KT P6SM BKN050 
     FM110100 VRB03KT P6SM SCT090